Time;durP1;ratioP1;P1;durP2;ratioP2;P2;SDS_P1;SDS_P2;PMS_P1;PMS_P2;Temp;Humidity;BMP_temperature;BMP_pressure;BME280_temperature;BME280_humidity;BME280_pressure;Samples;Min_cycle;Max_cycle;Signal;HPM_P1;HPM_P2
2023/10/04 00:01:12;;;;;;;9.38;3.75;;;12.30;99.90;;;;;;4999572;28;20037;-76
2023/10/04 00:03:39;;;;;;;8.98;3.83;;;12.40;99.90;;;;;;4964075;28;20046;-76
2023/10/04 00:06:04;;;;;;;8.20;3.70;;;12.30;99.90;;;;;;4965063;28;20081;-76
2023/10/04 00:08:30;;;;;;;10.30;3.80;;;12.40;99.90;;;;;;4986446;28;20125;-76
2023/10/04 00:10:56;;;;;;;8.32;3.20;;;12.30;99.90;;;;;;5001150;28;20070;-76
2023/10/04 00:13:21;;;;;;;9.13;3.70;;;12.40;99.90;;;;;;4982441;28;20046;-76
2023/10/04 00:15:47;;;;;;;9.80;3.60;;;12.40;99.90;;;;;;5004004;28;20045;-76
2023/10/04 00:18:15;;;;;;;9.68;3.80;;;12.40;99.90;;;;;;4984633;28;20045;-76
2023/10/04 00:20:43;;;;;;;9.45;3.63;;;12.40;99.90;;;;;;4982677;28;20096;-76
2023/10/04 00:23:09;;;;;;;8.38;3.78;;;12.40;99.90;;;;;;5004908;28;20041;-76
2023/10/04 00:25:35;;;;;;;13.82;4.15;;;12.40;99.90;;;;;;4987914;28;20048;-76
2023/10/04 00:28:02;;;;;;;7.75;3.88;;;12.30;99.90;;;;;;4994438;28;20078;-76
2023/10/04 00:30:29;;;;;;;11.30;4.45;;;12.30;99.90;;;;;;5002313;28;20088;-75
2023/10/04 00:32:57;;;;;;;11.27;4.25;;;12.30;99.90;;;;;;4975332;28;20600;-76
2023/10/04 00:35:25;;;;;;;12.23;4.38;;;12.30;99.90;;;;;;4986332;28;20077;-76
2023/10/04 00:37:55;;;;;;;9.32;3.95;;;12.30;99.90;;;;;;4989335;28;20046;-76
2023/10/04 00:40:32;;;;;;;9.35;4.10;;;12.30;99.90;;;;;;5005716;28;20054;-76
2023/10/04 00:43:01;;;;;;;8.85;4.00;;;12.20;99.90;;;;;;5007964;28;20084;-76
2023/10/04 00:45:31;;;;;;;11.55;4.40;;;12.20;99.90;;;;;;4991670;28;20508;-76
2023/10/04 00:47:59;;;;;;;10.55;4.20;;;12.20;99.90;;;;;;4988530;28;20041;-76
2023/10/04 00:50:31;;;;;;;10.82;4.63;;;12.20;99.90;;;;;;5000494;28;20528;-76
2023/10/04 00:53:13;;;;;;;11.07;4.15;;;12.20;99.90;;;;;;4985030;28;20049;-76
2023/10/04 00:55:41;;;;;;;6.90;3.90;;;12.20;99.90;;;;;;4988803;28;20125;-76
2023/10/04 00:58:09;;;;;;;11.15;4.40;;;12.20;99.90;;;;;;4997520;28;20883;-76
2023/10/04 01:00:39;;;;;;;8.32;3.95;;;12.10;99.90;;;;;;5001837;28;20489;-76
2023/10/04 01:03:07;;;;;;;10.32;3.92;;;12.10;99.90;;;;;;4994512;28;20056;-76
2023/10/04 01:05:38;;;;;;;8.57;3.88;;;12.00;99.90;;;;;;4994372;28;20503;-76
2023/10/04 01:08:06;;;;;;;9.07;3.92;;;12.00;99.90;;;;;;4983121;28;20042;-76
2023/10/04 01:10:34;;;;;;;8.02;3.95;;;12.00;99.90;;;;;;4989154;28;20073;-76
2023/10/04 01:13:05;;;;;;;9.50;3.80;;;12.00;99.90;;;;;;4977009;28;20048;-76
2023/10/04 01:15:36;;;;;;;8.10;3.50;;;12.00;99.90;;;;;;4993979;28;20037;-76
2023/10/04 01:18:12;;;;;;;11.25;4.00;;;11.90;99.90;;;;;;5002439;28;20045;-76
2023/10/04 01:20:39;;;;;;;10.98;3.67;;;11.90;99.90;;;;;;5003442;28;20109;-76
2023/10/04 01:23:06;;;;;;;8.15;3.75;;;11.90;99.90;;;;;;4992557;28;20045;-76
2023/10/04 01:25:38;;;;;;;6.72;3.00;;;11.90;99.90;;;;;;5010461;28;20048;-76
2023/10/04 01:28:28;;;;;;;11.25;3.70;;;11.90;99.90;;;;;;4981848;28;20580;-75
2023/10/04 01:30:55;;;;;;;8.77;3.70;;;11.90;99.90;;;;;;4998705;28;20060;-76
2023/10/04 01:33:21;;;;;;;7.90;3.35;;;11.80;99.90;;;;;;5005245;28;20050;-76
2023/10/04 01:35:53;;;;;;;7.82;2.97;;;11.80;99.90;;;;;;5011804;28;20484;-76
2023/10/04 01:38:25;;;;;;;15.13;3.78;;;11.80;99.90;;;;;;4983524;28;20207;-76
2023/10/04 01:40:52;;;;;;;8.00;3.38;;;11.90;99.90;;;;;;4987444;28;20497;-76
2023/10/04 01:43:19;;;;;;;7.25;3.22;;;11.80;99.90;;;;;;4982852;28;20061;-76
2023/10/04 01:45:57;;;;;;;7.05;3.05;;;11.80;99.90;;;;;;5003887;28;20042;-76
2023/10/04 01:48:23;;;;;;;9.10;3.20;;;11.80;99.90;;;;;;4997687;28;20122;-76
2023/10/04 01:50:52;;;;;;;8.30;3.35;;;11.80;99.90;;;;;;5002993;28;20062;-76
2023/10/04 01:53:24;;;;;;;6.35;2.85;;;11.80;99.90;;;;;;4992531;28;20042;-76
2023/10/04 01:55:50;;;;;;;9.30;2.97;;;11.80;99.90;;;;;;5012409;28;20049;-76
2023/10/04 01:58:21;;;;;;;10.05;3.22;;;11.80;99.90;;;;;;5006176;28;20038;-76
2023/10/04 02:00:47;;;;;;;7.57;3.30;;;11.80;99.90;;;;;;5006599;28;20093;-76
2023/10/04 02:03:14;;;;;;;9.57;3.35;;;11.70;99.90;;;;;;4976398;28;20616;-76
2023/10/04 02:05:40;;;;;;;10.60;3.72;;;11.70;99.90;;;;;;4971012;28;20034;-76
2023/10/04 02:08:07;;;;;;;8.68;3.78;;;11.70;99.90;;;;;;4983893;28;20057;-76
2023/10/04 02:10:34;;;;;;;13.13;3.45;;;11.70;99.90;;;;;;4967345;28;20097;-76
2023/10/04 02:13:00;;;;;;;10.95;3.78;;;11.80;99.90;;;;;;4988837;28;20485;-76
2023/10/04 02:15:26;;;;;;;9.98;3.50;;;11.70;99.90;;;;;;4983472;28;20088;-76
2023/10/04 02:17:53;;;;;;;11.93;3.10;;;11.70;99.90;;;;;;5005399;28;20397;-76
2023/10/04 02:20:23;;;;;;;9.75;3.05;;;11.80;99.90;;;;;;5006256;28;20038;-76
2023/10/04 02:22:54;;;;;;;10.40;3.22;;;11.80;99.90;;;;;;4987531;28;20051;-76
2023/10/04 02:25:20;;;;;;;10.05;3.17;;;11.70;99.90;;;;;;4996532;28;20038;-76
2023/10/04 02:27:49;;;;;;;10.75;4.00;;;11.70;99.90;;;;;;5005064;28;20185;-76
2023/10/04 02:30:26;;;;;;;12.15;3.45;;;11.80;99.90;;;;;;5000928;28;20042;-76
2023/10/04 02:32:53;;;;;;;11.68;3.85;;;11.80;99.90;;;;;;5004463;28;20042;-76
2023/10/04 02:35:34;;;;;;;10.27;3.80;;;11.80;99.90;;;;;;5000300;28;20041;-76
2023/10/04 02:38:10;;;;;;;9.88;3.33;;;11.80;99.90;;;;;;4998533;28;20105;-76
2023/10/04 02:40:37;;;;;;;9.73;3.15;;;11.70;99.90;;;;;;5009978;28;20291;-76
2023/10/04 02:43:03;;;;;;;10.32;4.13;;;11.70;99.90;;;;;;5004932;28;20050;-76
2023/10/04 02:45:29;;;;;;;8.57;3.63;;;11.70;99.90;;;;;;4976420;28;20472;-76
2023/10/04 02:47:55;;;;;;;7.57;3.72;;;11.70;99.90;;;;;;5001494;28;20121;-76
2023/10/04 02:50:24;;;;;;;12.25;4.38;;;11.70;99.90;;;;;;4970628;28;20053;-76
2023/10/04 02:52:51;;;;;;;10.48;4.03;;;11.70;99.90;;;;;;4981590;28;20045;-76
2023/10/04 02:55:18;;;;;;;10.18;3.90;;;11.80;99.90;;;;;;4985096;28;20062;-76
2023/10/04 02:57:45;;;;;;;8.38;4.13;;;11.80;99.90;;;;;;4977115;28;20050;-77
2023/10/04 03:00:16;;;;;;;11.75;4.50;;;11.80;99.90;;;;;;5001577;28;20042;-76
2023/10/04 03:02:48;;;;;;;13.38;4.57;;;11.80;99.90;;;;;;4983964;28;20042;-76
2023/10/04 03:05:20;;;;;;;13.48;4.45;;;11.80;99.90;;;;;;4999635;28;20544;-76
2023/10/04 03:07:50;;;;;;;12.15;4.63;;;11.80;99.90;;;;;;4997964;28;20050;-76
2023/10/04 03:10:23;;;;;;;13.35;4.55;;;11.80;99.90;;;;;;4968797;28;20041;-76
2023/10/04 03:12:54;;;;;;;11.75;3.92;;;11.70;99.90;;;;;;4995405;28;20034;-76
2023/10/04 03:15:23;;;;;;;13.48;4.30;;;11.70;99.90;;;;;;5001262;28;20042;-76
2023/10/04 03:17:50;;;;;;;12.23;4.50;;;11.70;99.90;;;;;;4997585;28;20489;-76
2023/10/04 03:20:20;;;;;;;14.65;4.95;;;11.70;99.90;;;;;;4966103;28;20088;-76
2023/10/04 03:22:51;;;;;;;15.48;4.55;;;11.70;99.90;;;;;;5001972;28;20042;-76
2023/10/04 03:25:20;;;;;;;12.18;4.40;;;11.60;99.90;;;;;;5001745;28;20135;-76
2023/10/04 03:27:46;;;;;;;13.05;4.15;;;11.60;99.90;;;;;;4980150;28;20610;-76
2023/10/04 03:30:15;;;;;;;12.18;4.20;;;11.60;99.90;;;;;;5009199;28;20041;-76
2023/10/04 03:32:52;;;;;;;12.10;4.38;;;11.70;99.90;;;;;;4981479;28;20039;-76
2023/10/04 03:35:22;;;;;;;15.45;4.50;;;11.60;99.90;;;;;;4970743;28;20030;-76
2023/10/04 03:38:01;;;;;;;11.35;4.43;;;11.60;99.90;;;;;;5000594;28;20875;-76
2023/10/04 03:40:34;;;;;;;12.30;4.13;;;11.60;99.90;;;;;;5001744;28;20145;-76
2023/10/04 03:43:05;;;;;;;11.20;4.55;;;11.50;99.90;;;;;;4992312;28;20041;-76
2023/10/04 03:45:42;;;;;;;15.68;4.63;;;11.50;99.90;;;;;;5006477;28;20046;-76
2023/10/04 03:48:18;;;;;;;12.43;4.30;;;11.50;99.90;;;;;;4983623;28;20100;-76
2023/10/04 03:50:48;;;;;;;19.73;4.22;;;11.50;99.90;;;;;;4987669;28;20121;-76
2023/10/04 03:53:15;;;;;;;8.13;3.88;;;11.50;99.90;;;;;;5001397;28;20039;-76
2023/10/04 03:55:42;;;;;;;12.40;4.22;;;11.40;99.90;;;;;;4997615;28;20508;-76
2023/10/04 03:58:10;;;;;;;12.45;4.40;;;11.40;99.90;;;;;;5001895;28;20041;-76
2023/10/04 04:00:36;;;;;;;13.65;4.55;;;11.40;99.90;;;;;;4984843;28;20045;-76
2023/10/04 04:03:03;;;;;;;10.90;4.78;;;11.40;99.90;;;;;;5001011;28;20060;-76
2023/10/04 04:05:30;;;;;;;12.70;4.13;;;11.40;99.90;;;;;;4990570;28;20038;-76
2023/10/04 04:07:56;;;;;;;12.00;4.35;;;11.40;99.90;;;;;;4998054;28;20054;-76
2023/10/04 04:10:24;;;;;;;12.98;4.32;;;11.40;99.90;;;;;;4983139;28;20085;-76
2023/10/04 04:12:50;;;;;;;12.02;3.83;;;11.40;99.90;;;;;;4983181;28;20050;-76
2023/10/04 04:15:17;;;;;;;13.88;4.18;;;11.40;99.90;;;;;;5006558;28;20034;-76
2023/10/04 04:17:46;;;;;;;16.33;4.40;;;11.30;99.90;;;;;;4982566;28;20385;-76
2023/10/04 04:20:19;;;;;;;8.07;4.28;;;11.30;99.90;;;;;;4996556;28;20117;-76
2023/10/04 04:22:50;;;;;;;;;;;11.20;99.90;;;;;;4995569;28;20128;-76
2023/10/04 04:25:19;;;;;;;12.10;4.15;;;11.30;99.90;;;;;;4963672;28;19925;-76
2023/10/04 04:27:46;;;;;;;11.38;4.22;;;11.20;99.90;;;;;;5005768;28;20034;-76
2023/10/04 04:30:22;;;;;;;16.65;4.88;;;11.20;99.90;;;;;;5004831;28;20129;-76
2023/10/04 04:32:52;;;;;;;11.75;4.30;;;11.20;99.90;;;;;;4981278;28;20167;-76
2023/10/04 04:36:08;;;;;;;12.48;4.63;;;11.20;99.90;;;;;;4996306;28;20038;-76
2023/10/04 04:38:24;;;;;;;12.98;4.10;;;11.20;99.90;;;;;;4989576;28;20042;-76
2023/10/04 04:40:58;;;;;;;13.25;4.35;;;11.20;99.90;;;;;;4988022;28;20409;-76
2023/10/04 04:45:51;;;;;;;15.98;4.78;;;11.10;99.90;;;;;;4992344;28;20050;-76
2023/10/04 04:48:18;;;;;;;17.67;4.88;;;11.10;99.90;;;;;;4994158;28;20121;-76
2023/10/04 04:50:44;;;;;;;14.60;4.60;;;11.10;99.90;;;;;;5000677;28;20046;-76
2023/10/04 04:53:15;;;;;;;12.57;4.30;;;11.10;99.90;;;;;;4974401;28;20496;-76
2023/10/04 04:55:41;;;;;;;12.90;4.97;;;11.10;99.90;;;;;;4982817;28;20512;-76
2023/10/04 04:58:07;;;;;;;12.55;4.20;;;11.10;99.90;;;;;;4963353;28;20061;-76
2023/10/04 05:00:33;;;;;;;12.15;3.75;;;11.10;99.90;;;;;;4951061;28;20536;-76
2023/10/04 05:03:04;;;;;;;16.23;4.50;;;11.10;99.90;;;;;;4991607;28;20125;-76
2023/10/04 05:05:31;;;;;;;11.82;4.85;;;11.10;99.90;;;;;;4997680;28;20883;-76
2023/10/04 05:07:57;;;;;;;11.80;4.72;;;11.10;99.90;;;;;;4988374;28;20044;-76
2023/10/04 05:10:25;;;;;;;10.85;4.28;;;11.10;99.90;;;;;;4983704;28;20042;-76
2023/10/04 05:12:52;;;;;;;13.23;4.50;;;11.20;99.90;;;;;;4979553;28;20042;-76
2023/10/04 05:15:50;;;;;;;10.55;3.88;;;11.10;99.90;;;;;;4963759;28;20437;-76
2023/10/04 05:18:16;;;;;;;12.55;4.45;;;11.20;99.90;;;;;;5001105;28;20052;-76
2023/10/04 05:20:50;;;;;;;10.55;4.40;;;11.20;99.90;;;;;;4995979;28;20405;-76
2023/10/04 05:23:17;;;;;;;10.13;4.28;;;11.20;99.90;;;;;;4995779;28;20114;-76
2023/10/04 05:25:43;;;;;;;11.38;4.63;;;11.20;99.90;;;;;;5005682;28;20048;-76
2023/10/04 05:28:11;;;;;;;18.92;4.55;;;11.30;99.90;;;;;;4987765;28;20034;-76
2023/10/04 05:30:38;;;;;;;13.45;4.28;;;11.30;99.90;;;;;;4998013;28;20493;-76
2023/10/04 05:33:06;;;;;;;11.63;4.43;;;11.20;99.90;;;;;;4987739;28;20073;-76
2023/10/04 05:35:34;;;;;;;11.77;4.63;;;11.30;99.90;;;;;;4999998;28;20036;-76
2023/10/04 05:38:03;;;;;;;12.52;4.63;;;11.30;99.90;;;;;;4987058;28;20519;-76
2023/10/04 05:40:34;;;;;;;7.78;3.95;;;11.30;99.90;;;;;;4997767;28;20143;-76
2023/10/04 05:43:00;;;;;;;10.20;4.32;;;11.30;99.90;;;;;;4984572;28;20040;-77
2023/10/04 05:45:26;;;;;;;13.35;4.97;;;11.30;99.90;;;;;;4962448;28;20038;-77
2023/10/04 05:47:52;;;;;;;12.98;3.95;;;11.30;99.90;;;;;;4980277;28;20042;-76
2023/10/04 05:50:21;;;;;;;14.90;5.47;;;11.30;99.90;;;;;;4996101;28;20046;-76
2023/10/04 05:52:48;;;;;;;14.98;4.82;;;11.30;99.90;;;;;;4981490;28;20104;-76
2023/10/04 05:55:16;;;;;;;10.27;4.45;;;11.30;99.90;;;;;;4969718;28;20034;-76
2023/10/04 05:57:46;;;;;;;13.90;4.50;;;11.30;99.90;;;;;;4984256;28;20040;-77
2023/10/04 06:03:00;;;;;;;11.85;4.28;;;11.30;99.90;;;;;;5004370;28;20061;-77
2023/10/04 06:05:27;;;;;;;11.32;4.45;;;11.30;99.90;;;;;;4964847;28;20088;-76
2023/10/04 06:07:55;;;;;;;14.40;4.28;;;11.20;99.90;;;;;;4989238;28;20046;-76
2023/10/04 06:10:24;;;;;;;13.50;4.63;;;11.30;99.90;;;;;;5001046;28;20048;-77
2023/10/04 06:12:54;;;;;;;10.23;5.03;;;11.30;99.90;;;;;;4999990;28;20050;-76
2023/10/04 06:15:21;;;;;;;11.07;5.10;;;11.30;99.90;;;;;;5012493;28;20049;-76
2023/10/04 06:17:47;;;;;;;14.57;5.25;;;11.30;99.90;;;;;;5010806;28;20034;-77
2023/10/04 06:20:24;;;;;;;11.50;4.47;;;11.30;99.90;;;;;;5009229;28;20057;-77
2023/10/04 06:23:05;;;;;;;15.80;5.35;;;11.40;99.90;;;;;;4994528;28;20404;-76
2023/10/04 06:25:34;;;;;;;11.90;4.78;;;11.30;99.90;;;;;;5012136;28;20067;-76
2023/10/04 06:28:03;;;;;;;12.32;4.68;;;11.40;99.90;;;;;;5003469;28;20064;-76
2023/10/04 06:30:32;;;;;;;13.05;5.63;;;11.40;99.90;;;;;;5012759;28;20519;-77
2023/10/04 06:33:00;;;;;;;17.48;5.53;;;11.40;99.90;;;;;;4985948;28;20072;-77
2023/10/04 06:35:27;;;;;;;10.98;5.55;;;11.50;99.90;;;;;;4987281;28;20041;-77
2023/10/04 06:37:53;;;;;;;14.10;5.13;;;11.50;99.90;;;;;;4996481;28;20053;-77
2023/10/04 06:40:19;;;;;;;18.58;5.53;;;11.40;99.90;;;;;;5011271;28;20054;-77
2023/10/04 06:42:47;;;;;;;13.55;5.80;;;11.50;99.90;;;;;;4981410;28;20046;-77
2023/10/04 06:45:13;;;;;;;17.25;6.15;;;11.50;99.90;;;;;;5003537;28;20416;-77
2023/10/04 06:47:44;;;;;;;12.90;5.68;;;11.50;99.90;;;;;;5013060;28;20042;-77
2023/10/04 06:50:14;;;;;;;13.52;5.90;;;11.50;99.90;;;;;;5008567;28;20108;-77
2023/10/04 06:52:42;;;;;;;12.20;5.53;;;11.50;99.90;;;;;;4984375;28;20046;-77
2023/10/04 06:55:11;;;;;;;13.25;5.22;;;11.50;99.90;;;;;;5000282;28;20118;-77
2023/10/04 06:57:39;;;;;;;13.75;4.90;;;11.60;99.90;;;;;;5004510;28;20459;-77
2023/10/04 07:00:15;;;;;;;9.02;5.05;;;11.60;99.90;;;;;;4991240;28;20038;-77
2023/10/04 07:02:49;;;;;;;13.27;5.88;;;11.60;99.90;;;;;;4972836;28;20404;-77
2023/10/04 07:05:20;;;;;;;11.13;5.45;;;11.60;99.90;;;;;;4981009;28;20157;-77
2023/10/04 07:07:54;;;;;;;10.60;5.18;;;11.60;99.90;;;;;;4990262;28;20049;-77
2023/10/04 07:10:21;;;;;;;16.30;5.72;;;11.70;99.90;;;;;;5009942;28;20046;-77
2023/10/04 07:12:48;;;;;;;14.93;5.05;;;11.80;99.90;;;;;;4988735;28;20385;-77
2023/10/04 07:15:14;;;;;;;13.60;5.57;;;11.80;99.90;;;;;;5004863;28;20072;-77
2023/10/04 07:17:41;;;;;;;12.93;5.30;;;11.90;99.90;;;;;;4989768;28;20060;-77
2023/10/04 07:20:18;;;;;;;16.85;5.53;;;11.90;99.90;;;;;;5007542;28;20072;-77
2023/10/04 07:22:51;;;;;;;16.58;5.95;;;12.00;99.90;;;;;;4995775;28;20393;-77
2023/10/04 07:25:17;;;;;;;13.73;5.40;;;12.00;99.90;;;;;;5012381;28;20041;-77
2023/10/04 07:27:44;;;;;;;18.00;6.15;;;12.00;99.90;;;;;;4984520;28;20076;-77
2023/10/04 07:30:14;;;;;;;17.00;5.45;;;12.10;99.90;;;;;;4994650;28;20186;-77
2023/10/04 07:32:41;;;;;;;18.80;5.53;;;12.10;99.90;;;;;;4996780;28;20034;-77
2023/10/04 07:35:10;;;;;;;13.13;4.90;;;12.20;99.90;;;;;;4987567;28;20493;-77
2023/10/04 07:37:36;;;;;;;13.30;5.47;;;12.20;99.90;;;;;;4992851;28;20099;-77
2023/10/04 07:40:02;;;;;;;16.42;5.97;;;12.20;99.90;;;;;;4954572;28;20034;-77
2023/10/04 07:42:27;;;;;;;12.55;5.63;;;12.30;99.90;;;;;;4995344;28;20048;-77
2023/10/04 07:44:53;;;;;;;12.18;5.07;;;12.30;99.90;;;;;;4993511;28;20049;-77
2023/10/04 07:47:19;;;;;;;18.08;5.35;;;12.30;99.90;;;;;;4994618;28;20029;-77
2023/10/04 07:49:44;;;;;;;15.05;5.85;;;12.30;99.90;;;;;;4976315;28;20038;-77
2023/10/04 07:52:10;;;;;;;11.80;4.97;;;12.40;99.90;;;;;;4979278;28;20037;-77
2023/10/04 07:54:37;;;;;;;11.90;5.53;;;12.40;99.90;;;;;;4994966;28;20041;-77
2023/10/04 07:57:03;;;;;;;14.45;5.70;;;12.50;99.90;;;;;;4978253;28;20046;-77
2023/10/04 07:59:29;;;;;;;17.23;5.75;;;12.50;99.90;;;;;;4990879;28;20525;-77
2023/10/04 08:01:56;;;;;;;15.98;5.55;;;12.60;99.90;;;;;;5008862;28;20076;-76
2023/10/04 08:04:21;;;;;;;14.48;4.70;;;12.60;99.90;;;;;;4977380;28;20038;-76
2023/10/04 08:06:52;;;;;;;16.85;5.30;;;12.70;99.90;;;;;;5005154;28;20042;-76
2023/10/04 08:09:18;;;;;;;13.05;5.38;;;12.70;99.90;;;;;;4976135;28;20057;-76
2023/10/04 08:11:43;;;;;;;18.90;6.43;;;12.80;99.90;;;;;;5008356;28;20412;-77
2023/10/04 08:14:10;;;;;;;13.32;5.15;;;12.90;99.90;;;;;;4994983;28;20034;-77
2023/10/04 08:16:36;;;;;;;12.43;5.13;;;13.00;99.90;;;;;;4978925;28;20069;-77
2023/10/04 08:19:04;;;;;;;10.98;4.80;;;13.00;99.90;;;;;;5005620;28;20389;-76
2023/10/04 08:21:30;;;;;;;13.40;4.65;;;13.10;99.90;;;;;;4984168;28;20439;-75
2023/10/04 08:23:58;;;;;;;14.63;5.13;;;13.10;99.90;;;;;;4998413;28;20527;-75
2023/10/04 08:26:23;;;;;;;12.00;4.88;;;13.20;99.90;;;;;;4980601;28;20042;-75
2023/10/04 08:28:49;;;;;;;17.88;5.22;;;13.30;99.90;;;;;;4967068;28;20053;-75
2023/10/04 08:31:16;;;;;;;12.85;4.90;;;13.40;99.90;;;;;;4979268;28;20045;-75
2023/10/04 08:33:43;;;;;;;15.35;5.60;;;13.50;99.90;;;;;;4979702;28;20065;-75
2023/10/04 08:36:18;;;;;;;14.07;4.70;;;13.60;99.90;;;;;;4993514;28;20052;-75
2023/10/04 08:38:45;;;;;;;11.98;5.75;;;13.70;99.90;;;;;;4996674;28;20050;-74
2023/10/04 08:41:12;;;;;;;12.05;5.65;;;13.90;99.90;;;;;;4980205;28;20042;-74
2023/10/04 08:43:38;;;;;;;15.80;5.30;;;14.00;99.90;;;;;;4998808;28;20044;-74
2023/10/04 08:46:08;;;;;;;15.38;5.35;;;14.10;99.90;;;;;;5010080;28;20045;-74
2023/10/04 08:48:34;;;;;;;13.45;4.60;;;14.20;99.90;;;;;;4997410;28;20038;-74
2023/10/04 08:51:13;;;;;;;12.88;5.05;;;14.30;99.90;;;;;;4984711;28;20056;-74
2023/10/04 08:53:58;;;;;;;14.68;5.00;;;14.40;99.90;;;;;;5010879;28;20456;-74
2023/10/04 08:56:27;;;;;;;14.60;5.05;;;14.50;99.90;;;;;;4994059;28;20148;-74
2023/10/04 08:58:55;;;;;;;12.38;5.30;;;14.60;99.90;;;;;;4989990;28;20042;-75
2023/10/04 09:01:22;;;;;;;14.82;5.47;;;14.70;99.90;;;;;;4978012;28;20080;-75
2023/10/04 09:03:52;;;;;;;14.10;5.20;;;14.80;99.90;;;;;;4975863;28;20379;-75
2023/10/04 09:06:18;;;;;;;12.30;4.80;;;14.90;99.90;;;;;;5013958;28;20129;-75
2023/10/04 09:08:44;;;;;;;14.20;5.13;;;15.00;99.90;;;;;;4993649;28;20178;-75
2023/10/04 09:11:15;;;;;;;10.35;4.82;;;15.00;99.90;;;;;;5006203;28;20053;-75
2023/10/04 09:13:47;;;;;;;14.17;4.90;;;15.20;99.90;;;;;;4994432;28;20092;-75
2023/10/04 09:16:28;;;;;;;13.25;4.50;;;15.30;99.90;;;;;;4994259;28;20281;-75
2023/10/04 09:19:18;;;;;;;10.57;5.03;;;15.40;99.90;;;;;;4981198;28;20038;-75
2023/10/04 09:21:51;;;;;;;16.25;4.75;;;15.40;99.90;;;;;;5005265;28;20050;-75
2023/10/04 09:24:17;;;;;;;10.95;4.80;;;15.50;99.90;;;;;;5009042;28;20046;-74
2023/10/04 09:26:54;;;;;;;13.38;4.70;;;15.50;99.90;;;;;;4983356;28;20481;-75
2023/10/04 09:29:34;;;;;;;15.32;4.80;;;15.60;99.90;;;;;;5001021;28;20410;-75
2023/10/04 09:32:00;;;;;;;13.65;4.65;;;15.60;99.90;;;;;;4996790;28;20033;-75
2023/10/04 09:34:28;;;;;;;14.25;4.40;;;15.60;99.90;;;;;;4998971;28;20041;-74
2023/10/04 09:36:54;;;;;;;12.50;4.63;;;15.70;99.90;;;;;;4994893;28;20053;-75
2023/10/04 09:39:27;;;;;;;18.45;5.20;;;15.70;99.90;;;;;;5006228;28;20038;-75
2023/10/04 09:41:55;;;;;;;10.68;4.57;;;15.80;99.90;;;;;;5009412;28;20042;-75
2023/10/04 09:44:29;;;;;;;20.83;5.07;;;15.90;99.90;;;;;;4983191;28;20481;-75
2023/10/04 09:46:59;;;;;;;12.48;4.88;;;15.90;99.90;;;;;;5008331;28;20101;-75
2023/10/04 09:49:33;;;;;;;14.52;5.20;;;16.00;99.90;;;;;;4986033;28;20436;-75
2023/10/04 09:52:12;;;;;;;11.77;4.95;;;16.10;99.90;;;;;;5005468;28;20049;-75
2023/10/04 09:54:39;;;;;;;11.13;4.30;;;16.20;99.90;;;;;;4981763;28;20038;-74
2023/10/04 09:57:12;;;;;;;11.57;4.65;;;16.20;99.90;;;;;;5005474;28;20469;-75
2023/10/04 09:59:38;;;;;;;13.25;4.88;;;16.30;99.90;;;;;;4998310;28;20088;-74
2023/10/04 10:02:09;;;;;;;10.90;4.53;;;16.40;99.90;;;;;;5002704;28;20128;-74
2023/10/04 10:04:42;;;;;;;11.60;4.28;;;16.40;99.90;;;;;;4996289;28;20137;-74
2023/10/04 10:07:18;;;;;;;12.05;5.05;;;16.50;99.90;;;;;;4995080;28;20037;-74
2023/10/04 10:10:04;;;;;;;11.63;5.15;;;16.60;99.90;;;;;;4994751;28;20048;-76
2023/10/04 10:12:31;;;;;;;10.05;4.63;;;16.70;99.90;;;;;;5014144;28;20046;-76
2023/10/04 10:15:01;;;;;;;16.67;4.90;;;16.60;99.90;;;;;;4966033;28;20038;-76
2023/10/04 10:17:31;;;;;;;13.63;4.68;;;16.60;99.90;;;;;;4970128;28;20034;-76
2023/10/04 10:19:58;;;;;;;10.82;5.00;;;16.60;99.90;;;;;;4972152;28;20065;-77
2023/10/04 10:22:23;;;;;;;15.55;5.25;;;16.50;99.90;;;;;;4991015;28;20077;-75
2023/10/04 10:24:55;;;;;;;9.85;4.70;;;16.40;99.90;;;;;;4967105;28;20046;-75
2023/10/04 10:27:23;;;;;;;11.32;4.85;;;16.40;99.90;;;;;;4974966;28;20077;-76
2023/10/04 10:29:51;;;;;;;10.00;4.63;;;16.40;99.90;;;;;;4989563;28;20049;-77
2023/10/04 10:32:20;;;;;;;13.38;4.63;;;16.40;99.90;;;;;;4991551;28;20096;-75
2023/10/04 10:34:49;;;;;;;10.10;4.68;;;16.30;99.90;;;;;;4971749;28;20037;-75
2023/10/04 10:37:22;;;;;;;11.13;5.10;;;16.30;99.90;;;;;;4991998;28;20132;-77
2023/10/04 10:39:48;;;;;;;;;;;16.30;99.90;;;;;;4982359;28;20056;-75
2023/10/04 10:42:15;;;;;;;9.88;4.28;;;16.20;99.90;;;;;;5012784;28;20000;-76
2023/10/04 10:44:41;;;;;;;9.10;4.68;;;16.20;99.90;;;;;;4976847;28;20037;-76
2023/10/04 10:47:14;;;;;;;12.52;4.97;;;16.20;99.90;;;;;;5013020;28;20140;-76
2023/10/04 10:49:44;;;;;;;12.30;4.70;;;16.20;99.90;;;;;;5013157;28;20042;-76
2023/10/04 10:52:38;;;;;;;10.75;4.60;;;16.20;99.90;;;;;;4996780;28;20419;-76
2023/10/04 10:55:17;;;;;;;12.95;4.43;;;16.20;99.90;;;;;;5002442;28;20038;-76
2023/10/04 10:57:44;;;;;;;12.90;4.68;;;16.20;99.90;;;;;;4993042;28;20066;-76
2023/10/04 11:02:40;;;;;;;15.93;4.70;;;16.30;99.90;;;;;;4997799;28;20493;-75
2023/10/04 11:05:08;;;;;;;10.90;4.82;;;16.30;99.90;;;;;;5010177;28;20045;-75
2023/10/04 11:07:36;;;;;;;19.50;5.18;;;16.40;99.90;;;;;;4991776;28;20065;-75
2023/10/04 11:10:04;;;;;;;13.43;4.95;;;16.50;99.90;;;;;;4985982;28;20034;-75
2023/10/04 11:12:37;;;;;;;13.13;5.22;;;16.50;99.90;;;;;;5002715;28;20045;-75
2023/10/04 11:15:04;;;;;;;10.10;5.22;;;16.50;99.90;;;;;;4989914;28;20432;-75
2023/10/04 11:17:30;;;;;;;12.20;5.50;;;16.40;99.90;;;;;;4982573;28;20515;-75
2023/10/04 11:19:56;;;;;;;14.85;5.55;;;16.40;99.90;;;;;;4982700;28;20038;-75
2023/10/04 11:22:23;;;;;;;13.75;5.68;;;16.40;99.90;;;;;;4973389;28;20034;-75
2023/10/04 11:24:50;;;;;;;10.90;5.18;;;16.40;99.90;;;;;;5007116;28;20090;-75
2023/10/04 11:27:21;;;;;;;17.27;6.10;;;16.40;99.90;;;;;;4992197;28;20073;-75
2023/10/04 11:29:52;;;;;;;12.00;5.43;;;16.40;99.90;;;;;;5008130;28;20038;-74
2023/10/04 11:32:18;;;;;;;11.90;4.47;;;16.40;99.90;;;;;;4989436;28;20037;-75
2023/10/04 11:34:44;;;;;;;11.35;5.05;;;16.40;99.90;;;;;;4985710;28;20540;-75
2023/10/04 11:37:13;;;;;;;11.05;5.38;;;16.40;99.90;;;;;;4985074;28;20092;-75
2023/10/04 11:39:39;;;;;;;14.23;5.43;;;16.40;99.90;;;;;;4996977;28;20473;-75
2023/10/04 11:42:23;;;;;;;15.18;5.90;;;16.40;99.90;;;;;;4986100;28;20038;-75
2023/10/04 11:44:49;;;;;;;11.20;5.15;;;16.40;99.90;;;;;;5001202;28;20125;-75
2023/10/04 11:47:27;;;;;;;13.02;5.10;;;16.30;99.90;;;;;;4981560;28;20497;-75
2023/10/04 11:49:58;;;;;;;15.93;5.85;;;16.30;99.90;;;;;;4986325;28;20072;-75
2023/10/04 11:52:28;;;;;;;14.43;5.45;;;16.30;99.90;;;;;;4976772;28;20057;-75
2023/10/04 11:54:54;;;;;;;14.10;5.68;;;16.30;99.90;;;;;;4989683;28;20034;-75
2023/10/04 11:57:24;;;;;;;11.43;5.15;;;16.30;99.90;;;;;;5001615;28;20527;-75
2023/10/04 11:59:50;;;;;;;12.63;5.60;;;16.30;99.90;;;;;;4983425;28;20042;-74
2023/10/04 12:02:16;;;;;;;13.88;5.35;;;16.30;99.90;;;;;;4981723;28;20046;-75
2023/10/04 12:04:41;;;;;;;13.95;5.93;;;16.30;99.90;;;;;;4964738;28;20073;-75
2023/10/04 12:07:07;;;;;;;12.20;4.90;;;16.30;99.90;;;;;;5002476;28;20064;-75
2023/10/04 12:09:36;;;;;;;10.48;4.78;;;16.40;99.90;;;;;;4967140;28;20038;-75
2023/10/04 12:12:05;;;;;;;13.68;5.45;;;16.40;99.90;;;;;;4988484;28;20041;-75
2023/10/04 12:14:31;;;;;;;15.10;5.43;;;16.40;99.90;;;;;;4986937;28;20035;-75
2023/10/04 12:17:05;;;;;;;11.15;4.65;;;16.40;99.90;;;;;;4999601;28;20096;-75
2023/10/04 12:19:35;;;;;;;16.90;6.13;;;16.30;99.90;;;;;;4996652;28;20039;-75
2023/10/04 12:22:08;;;;;;;15.48;5.32;;;16.30;99.90;;;;;;4979276;28;20100;-75
2023/10/04 12:24:38;;;;;;;12.63;5.30;;;16.20;99.90;;;;;;4983227;28;20096;-75
2023/10/04 12:27:08;;;;;;;14.70;5.95;;;16.20;99.90;;;;;;4991248;28;20492;-75
2023/10/04 12:29:37;;;;;;;14.60;5.70;;;16.20;99.90;;;;;;4981050;28;20046;-74
2023/10/04 12:32:05;;;;;;;14.45;5.00;;;16.20;99.90;;;;;;4983003;28;20046;-75
2023/10/04 12:34:31;;;;;;;10.48;4.93;;;16.20;99.90;;;;;;5011020;28;20030;-75
2023/10/04 12:36:57;;;;;;;13.95;4.85;;;16.20;99.90;;;;;;4994423;28;20104;-75
2023/10/04 12:39:23;;;;;;;20.98;6.28;;;16.30;99.90;;;;;;4993290;28;20042;-75
2023/10/04 12:41:50;;;;;;;12.55;5.05;;;16.30;99.90;;;;;;5009256;28;20481;-75
2023/10/04 12:44:19;;;;;;;11.20;4.78;;;16.40;99.90;;;;;;5010547;28;20500;-75
2023/10/04 12:46:47;;;;;;;11.25;4.75;;;16.40;99.90;;;;;;4971001;28;20081;-75
2023/10/04 12:49:13;;;;;;;13.23;6.40;;;16.40;99.90;;;;;;5005694;28;20050;-75
2023/10/04 12:51:39;;;;;;;14.48;6.15;;;16.50;99.90;;;;;;5006161;28;20074;-75
2023/10/04 12:54:07;;;;;;;15.52;5.43;;;16.50;99.90;;;;;;4988951;28;20077;-75
2023/10/04 12:56:33;;;;;;;9.15;4.95;;;16.50;99.90;;;;;;5007568;28;20117;-75